TimeEET,TemperatureF,Dew PointF,Humidity,Sea Level PressureIn,VisibilityMPH,Wind Direction,Wind SpeedMPH,Gust SpeedMPH,PrecipitationIn,Events,Conditions,WindDirDegrees,DateUTC
12:20 AM,41.0,32.0,70,29.62,6.2,SE,16.1,-,N/A,,Mostly Cloudy,140,2013-03-22 22:20:00
12:50 AM,39.2,32.0,75,29.62,6.2,East,17.3,-,N/A,,Mostly Cloudy,90,2013-03-22 22:50:00
1:20 AM,39.2,33.8,81,29.59,6.2,ENE,19.6,-,N/A,,Mostly Cloudy,70,2013-03-22 23:20:00
1:50 AM,39.2,33.8,81,29.56,6.2,East,11.5,-,N/A,,Mostly Cloudy,80,2013-03-22 23:50:00
2:00 AM,39,35,78,,12,East,11.5,,,,Partly Cloudy,90,2013-03-23 00:00:00
2:06 AM,39.2,35.6,87,29.53,6.2,East,13.8,-,N/A,Rain,Light Rain,80,2013-03-23 00:06:00
2:20 AM,39.2,33.8,81,29.53,6.2,East,13.8,25.3,N/A,,Mostly Cloudy,80,2013-03-23 00:20:00
2:46 AM,39.2,33.8,81,29.53,6.2,East,18.4,32.2,N/A,Rain,Light Rain,90,2013-03-23 00:46:00
2:50 AM,39.2,33.8,81,29.53,6.2,ESE,13.8,25.3,N/A,Rain,Light Rain,110,2013-03-23 00:50:00
3:20 AM,37.4,33.8,87,29.53,6.2,East,9.2,-,N/A,Rain,Light Rain,100,2013-03-23 01:20:00
3:50 AM,39.2,33.8,81,29.53,6.2,ESE,12.7,-,N/A,Rain,Light Rain,120,2013-03-23 01:50:00
4:20 AM,39.2,30.2,70,29.50,6.2,South,13.8,25.3,N/A,Rain,Light Rain,170,2013-03-23 02:20:00
4:50 AM,37.4,32.0,81,29.53,6.2,SW,13.8,-,N/A,Rain,Light Rain,220,2013-03-23 02:50:00
5:08 AM,35.6,32.0,87,29.53,6.2,SSW,15.0,27.6,N/A,,Mostly Cloudy,210,2013-03-23 03:08:00
5:20 AM,35.6,30.2,81,29.53,6.2,SSW,9.2,-,N/A,,Mostly Cloudy,210,2013-03-23 03:20:00
5:50 AM,35.6,30.2,81,29.56,6.2,SSW,8.1,-,N/A,,Mostly Cloudy,210,2013-03-23 03:50:00
6:20 AM,37.4,28.4,70,29.53,6.2,South,16.1,28.8,N/A,,Mostly Cloudy,180,2013-03-23 04:20:00
6:50 AM,37.4,28.4,70,29.53,6.2,South,16.1,27.6,N/A,,Scattered Clouds,190,2013-03-23 04:50:00
7:20 AM,39.2,28.4,65,29.50,6.2,South,26.5,43.7,N/A,,Scattered Clouds,190,2013-03-23 05:20:00
7:50 AM,39.2,28.4,65,29.53,6.2,South,27.6,44.9,N/A,,Scattered Clouds,190,2013-03-23 05:50:00
8:00 AM,40,28,51,,12,South,26.5,,,,Partly Cloudy,190,2013-03-23 06:00:00
8:20 AM,41.0,28.4,61,29.53,6.2,South,18.4,39.1,N/A,,Scattered Clouds,180,2013-03-23 06:20:00
8:50 AM,41.0,28.4,61,29.53,6.2,South,18.4,34.5,N/A,,Scattered Clouds,180,2013-03-23 06:50:00
9:20 AM,42.8,28.4,57,29.50,6.2,South,26.5,42.6,N/A,,Scattered Clouds,180,2013-03-23 07:20:00
9:50 AM,42.8,28.4,57,29.53,6.2,South,23.0,-,N/A,,Scattered Clouds,180,2013-03-23 07:50:00
10:20 AM,42.8,26.6,53,29.53,6.2,South,26.5,42.6,N/A,,Scattered Clouds,180,2013-03-23 08:20:00
10:50 AM,42.8,26.6,53,29.53,6.2,South,26.5,40.3,N/A,,Scattered Clouds,190,2013-03-23 08:50:00
11:20 AM,44.6,26.6,49,29.53,6.2,South,25.3,40.3,N/A,,Mostly Cloudy,190,2013-03-23 09:20:00
11:50 AM,42.8,26.6,53,29.53,6.2,South,24.2,35.7,N/A,,Mostly Cloudy,190,2013-03-23 09:50:00
12:20 PM,41.0,28.4,61,29.56,6.2,South,23.0,-,N/A,,Mostly Cloudy,190,2013-03-23 10:20:00
12:50 PM,42.8,26.6,53,29.53,6.2,SSW,19.6,35.7,N/A,,Mostly Cloudy,200,2013-03-23 10:50:00
1:17 PM,37.4,30.2,75,29.59,3.7,SSW,18.4,33.4,N/A,Rain-Snow,Light Snow Showers,210,2013-03-23 11:17:00
1:20 PM,33.8,32.0,93,29.59,3.7,SSW,18.4,33.4,N/A,Rain-Snow,Light Snow Showers,210,2013-03-23 11:20:00
1:50 PM,30.2,30.2,100,29.62,0.4,West,21.9,-,N/A,Fog-Snow,Light Snow Showers,260,2013-03-23 11:50:00
2:00 PM,29,29,100,,0,West,20.7,,,Snow,Light Snow Showers,260,2013-03-23 12:00:00
2:12 PM,30.2,30.2,100,29.62,1.2,West,12.7,-,N/A,Snow,Mostly Cloudy,260,2013-03-23 12:12:00
2:20 PM,30.2,30.2,100,29.62,1.8,West,11.5,-,N/A,,Mostly Cloudy,260,2013-03-23 12:20:00
2:50 PM,30.2,30.2,100,29.62,1.8,SW,11.5,-,N/A,,Mostly Cloudy,220,2013-03-23 12:50:00
3:07 PM,30.2,30.2,100,29.62,2.8,SW,11.5,-,N/A,Snow,Light Snow Showers,220,2013-03-23 13:07:00
3:20 PM,30.2,28.4,93,29.65,3.7,West,15.0,-,N/A,Snow,Light Snow Showers,260,2013-03-23 13:20:00
3:50 PM,30.2,28.4,93,29.65,4.3,West,10.4,-,N/A,Snow,Light Snow Showers,260,2013-03-23 13:50:00
4:20 PM,30.2,28.4,93,29.65,4.3,WSW,8.1,-,N/A,Snow,Light Snow,250,2013-03-23 14:20:00
4:50 PM,30.2,28.4,93,29.65,3.7,West,9.2,-,N/A,Snow,Light Snow,260,2013-03-23 14:50:00
5:20 PM,28.4,26.6,93,29.65,5.0,WSW,9.2,-,N/A,,Mostly Cloudy,240,2013-03-23 15:20:00
5:50 PM,28.4,26.6,93,29.65,6.2,SSW,3.5,-,N/A,,Mostly Cloudy,210,2013-03-23 15:50:00
6:20 PM,28.4,24.8,86,29.65,6.2,WSW,6.9,-,N/A,,Mostly Cloudy,240,2013-03-23 16:20:00
6:50 PM,28.4,26.6,93,29.65,6.2,SSW,5.8,-,N/A,,Mostly Cloudy,210,2013-03-23 16:50:00
7:20 PM,26.6,26.6,100,29.65,6.2,SW,3.5,-,N/A,,Mostly Cloudy,230,2013-03-23 17:20:00
7:50 PM,28.4,24.8,86,29.68,6.2,WSW,6.9,-,N/A,,Mostly Cloudy,240,2013-03-23 17:50:00
8:00 PM,28,26,87,,6,SW,5.8,,,,Partly Cloudy,230,2013-03-23 18:00:00
8:20 PM,28.4,24.8,86,29.68,6.2,SSW,4.6,-,N/A,,Mostly Cloudy,200,2013-03-23 18:20:00
8:50 PM,28.4,23.0,80,29.68,6.2,SW,6.9,-,N/A,,Mostly Cloudy,230,2013-03-23 18:50:00
9:20 PM,26.6,23.0,86,29.68,6.2,WSW,9.2,-,N/A,,Mostly Cloudy,240,2013-03-23 19:20:00
9:50 PM,26.6,23.0,86,29.68,6.2,WSW,11.5,-,N/A,,Mostly Cloudy,250,2013-03-23 19:50:00
10:20 PM,26.6,21.2,80,29.68,6.2,WSW,13.8,-,N/A,,Mostly Cloudy,240,2013-03-23 20:20:00
10:50 PM,26.6,21.2,80,29.71,6.2,SW,10.4,-,N/A,,Mostly Cloudy,230,2013-03-23 20:50:00
11:20 PM,24.8,19.4,80,29.71,6.2,SW,8.1,-,N/A,,Mostly Cloudy,230,2013-03-23 21:20:00
11:50 PM,24.8,19.4,80,29.74,6.2,SW,4.6,-,N/A,,Mostly Cloudy,230,2013-03-23 21:50:00